createdAt,value
2023-04-02T05:01:34.025Z,100049.53
2023-04-02T05:04:24.563Z,100057.41
2023-04-02T05:06:56.887Z,100069.69
2023-04-02T05:09:34.262Z,100060.94
2023-04-02T05:12:33.514Z,100074.94
2023-04-02T05:15:14.339Z,100084.59
2023-04-02T05:17:52.205Z,100086.38
2023-04-02T05:20:31.703Z,100083.72
2023-04-02T05:23:12.021Z,100097.72
2023-04-02T05:25:52.154Z,100092.47
2023-04-02T05:28:32.572Z,100094.25
2023-04-02T05:31:05.833Z,100089.88
2023-04-02T05:33:36.813Z,100101.28
2023-04-02T05:36:12.945Z,100105.66
2023-04-02T05:38:47.920Z,100110.03
2023-04-02T05:41:47.502Z,100113.53
2023-04-02T05:44:33.912Z,100122.31
2023-04-02T05:47:24.817Z,100125.81
2023-04-02T05:50:13.742Z,100136.34
2023-04-02T05:52:50.344Z,100133.72
2023-04-02T05:55:17.925Z,100153.84
2023-04-02T05:58:01.182Z,100154.72
2023-04-02T06:00:38.074Z,100163.47
2023-04-02T06:03:34.992Z,100165.25
2023-04-02T06:06:14.260Z,100161.75
2023-04-02T06:08:49.071Z,100168.75
2023-04-02T06:14:36.233Z,100173.09
2023-04-02T06:20:22.029Z,100211.66
2023-04-02T06:23:36.963Z,100223.94
2023-04-02T06:26:18.773Z,100228.31
2023-04-02T06:29:07.397Z,100257.19
2023-04-02T06:31:36.944Z,100256.31
2023-04-02T06:34:14.242Z,100265.03
2023-04-02T06:36:44.775Z,100265.06
2023-04-02T06:39:19.743Z,100278.19
2023-04-02T06:42:10.402Z,100272.88
2023-04-02T06:45:01.675Z,100294.75
2023-04-02T06:47:47.458Z,100293.00
2023-04-02T06:50:27.161Z,100301.75
2023-04-02T06:53:02.247Z,100306.09
2023-04-02T06:55:39.954Z,100316.63
2023-04-02T06:58:07.338Z,100312.28
2023-04-02T07:00:48.657Z,100327.19
2023-04-02T07:03:29.459Z,100335.94
2023-04-02T07:06:02.135Z,100334.22
2023-04-02T07:08:30.397Z,100335.94
2023-04-02T07:10:57.198Z,100341.19
2023-04-02T07:13:25.627Z,100347.31
2023-04-02T07:15:55.046Z,100346.44
2023-04-02T07:18:31.051Z,100360.44
2023-04-02T07:21:00.198Z,100371.84
2023-04-02T07:23:28.098Z,100359.56
2023-04-02T07:25:56.093Z,100365.69
2023-04-02T07:28:23.627Z,100379.69
2023-04-02T07:30:51.492Z,100383.16
2023-04-02T07:33:22.060Z,100388.41
2023-04-02T07:35:49.708Z,100399.78
2023-04-02T07:38:17.020Z,100394.53
2023-04-02T07:40:43.739Z,100403.28
2023-04-02T07:43:11.457Z,100412.03
2023-04-02T07:45:38.419Z,100412.88
2023-04-02T07:48:07.561Z,100417.22
2023-04-02T07:50:34.563Z,100434.88
2023-04-02T07:53:01.879Z,100431.34
2023-04-02T07:55:28.949Z,100438.34
2023-04-02T07:57:58.751Z,100441.00
2023-04-02T08:00:26.660Z,100442.75
2023-04-02T08:02:53.964Z,100456.75
2023-04-02T08:05:20.839Z,100449.75
2023-04-02T08:07:56.297Z,100447.97
2023-04-02T08:10:23.657Z,100447.97
2023-04-02T08:12:51.313Z,100453.19
2023-04-02T08:15:18.639Z,100458.47
2023-04-02T08:17:46.782Z,100458.41
2023-04-02T08:20:19.836Z,100457.50
2023-04-02T08:22:48.146Z,100461.84
2023-04-02T08:25:15.340Z,100474.06
2023-04-02T08:27:42.959Z,100467.03
2023-04-02T08:33:04.640Z,100485.41
2023-04-02T08:35:31.318Z,100492.38
2023-04-02T08:37:58.922Z,100509.84
2023-04-02T08:40:38.596Z,100510.69
2023-04-02T08:43:23.727Z,100525.53
2023-04-02T08:46:12.154Z,100506.03
2023-04-02T08:48:43.377Z,100527.03
2023-04-02T08:51:23.422Z,100522.47
2023-04-02T08:53:54.357Z,100539.16
2023-04-02T08:56:56.250Z,100552.31
2023-04-02T08:59:35.767Z,100546.34
2023-04-02T09:02:05.894Z,100550.78
2023-04-02T09:04:33.927Z,100555.16
2023-04-02T09:07:00.943Z,100564.09
2023-04-02T09:09:28.372Z,100565.88
2023-04-02T09:12:02.925Z,100573.75
2023-04-02T09:14:46.338Z,100572.81
2023-04-02T09:17:21.020Z,100581.56
2023-04-02T09:20:01.898Z,100585.91
2023-04-02T09:22:31.967Z,100588.44
2023-04-02T09:25:04.750Z,100582.31
2023-04-02T09:27:35.781Z,100592.97
2023-04-02T09:30:13.109Z,100594.75
2023-04-02T09:32:54.999Z,100600.03
2023-04-02T09:35:26.872Z,100599.16
2023-04-02T09:38:31.861Z,100605.19
2023-04-02T09:41:06.793Z,100612.13
2023-04-02T09:43:40.245Z,100610.38
2023-04-02T09:46:18.754Z,100612.19
2023-04-02T09:48:53.813Z,100621.00
2023-04-02T09:51:23.999Z,100628.00
2023-04-02T09:54:07.101Z,100631.53
2023-04-02T09:56:39.051Z,100637.59
2023-04-02T09:59:07.517Z,100645.47
2023-04-02T10:01:38.752Z,100642.88
2023-04-02T10:04:27.244Z,100651.63
2023-04-02T10:06:57.851Z,100655.16
2023-04-02T10:09:30.963Z,100654.28
2023-04-02T10:11:59.715Z,100654.19
2023-04-02T10:14:40.632Z,100647.03
2023-04-02T10:17:21.970Z,100655.69
2023-04-02T10:19:55.125Z,100662.56
2023-04-02T10:22:23.235Z,100663.50
2023-04-02T10:24:51.537Z,100663.47
2023-04-02T10:27:38.108Z,100672.97
2023-04-02T10:30:29.423Z,100679.09
2023-04-02T10:33:03.379Z,100679.13
2023-04-02T10:35:38.568Z,100683.63
2023-04-02T10:38:31.005Z,100692.34
2023-04-02T10:40:58.146Z,100685.97
2023-04-02T10:43:37.974Z,100691.16
2023-04-02T10:46:13.601Z,100696.38
2023-04-02T10:48:43.161Z,100709.66
2023-04-02T10:51:16.171Z,100707.00
2023-04-02T10:54:04.769Z,100712.31
2023-04-02T10:56:41.021Z,100717.59
2023-04-02T10:59:26.243Z,100715.91
2023-04-02T11:01:57.845Z,100720.97
2023-04-02T11:04:44.095Z,100721.72
2023-04-02T11:07:23.030Z,100728.78
2023-04-02T11:09:53.467Z,100721.84
2023-04-02T11:12:41.424Z,100741.31
2023-04-02T11:17:56.766Z,100737.66
2023-04-02T11:21:01.181Z,100748.09
2023-04-02T11:23:34.479Z,100743.56
2023-04-02T11:26:49.121Z,100760.28
2023-04-02T11:29:21.569Z,100755.13
2023-04-02T11:31:55.190Z,100766.44
2023-04-02T11:34:41.587Z,100770.75
2023-04-02T11:37:11.729Z,100764.72
2023-04-02T11:40:08.371Z,100764.72
2023-04-02T11:42:39.241Z,100771.53
2023-04-02T11:45:25.250Z,100780.09
2023-04-02T11:51:01.760Z,100776.06
2023-04-02T11:53:35.480Z,100770.91
2023-04-02T11:56:18.529Z,100765.72
2023-04-02T11:59:05.520Z,100777.84
2023-04-02T12:04:53.321Z,100780.47
2023-04-02T12:07:35.720Z,100786.63
2023-04-02T12:19:16.612Z,100803.44
2023-04-02T12:27:29.758Z,100807.22
2023-04-02T12:30:14.037Z,100814.31
2023-04-02T12:32:40.965Z,100821.41
2023-04-02T12:35:33.546Z,100824.94
2023-04-02T12:38:01.009Z,100815.31
2023-04-02T12:40:28.749Z,100827.53
2023-04-02T12:42:55.427Z,100815.00
2023-04-02T12:45:29.880Z,100835.13
2023-04-02T12:47:58.267Z,100833.41
2023-04-02T12:50:25.731Z,100846.63
2023-04-02T12:52:54.895Z,100853.66
2023-04-02T12:55:27.197Z,100861.75
2023-04-02T12:57:58.829Z,100861.59
2023-04-02T13:00:26.037Z,100856.31
2023-04-02T13:03:19.726Z,100856.06
2023-04-02T13:05:51.083Z,100845.25
2023-04-02T13:08:28.339Z,100850.41
2023-04-02T13:11:00.797Z,100860.22
2023-04-02T13:13:33.188Z,100861.03
2023-04-02T13:16:02.584Z,100866.56
2023-04-02T13:18:32.168Z,100861.47
2023-04-02T13:21:17.585Z,100871.16
2023-04-02T13:23:46.321Z,100860.31
2023-04-02T13:26:21.859Z,100864.56
2023-04-02T13:29:04.979Z,100866.38
2023-04-02T13:31:33.058Z,100867.19
2023-04-02T13:34:00.175Z,100870.44
2023-04-02T13:36:29.209Z,100862.41
2023-04-02T13:38:57.106Z,100865.25
2023-04-02T13:41:28.825Z,100874.88
2023-04-02T13:44:00.299Z,100858.97
2023-04-02T13:46:31.100Z,100864.31
2023-04-02T13:48:59.206Z,100874.88
2023-04-02T13:51:44.401Z,100869.56
2023-04-02T13:54:35.198Z,100879.41
2023-04-02T13:57:01.882Z,100880.56
2023-04-02T13:59:29.216Z,100876.31
2023-04-02T14:02:05.559Z,100892.22
2023-04-02T14:04:42.557Z,100880.88
2023-04-02T14:07:21.689Z,100880.91
2023-04-02T14:10:02.336Z,100883.34
2023-04-02T14:12:41.545Z,100888.56
2023-04-02T14:15:19.511Z,100893.09
2023-04-02T14:17:50.188Z,100891.31
2023-04-02T14:20:44.605Z,100900.94
2023-04-02T14:23:33.846Z,100898.25
2023-04-02T14:26:32.015Z,100887.66
2023-04-02T14:29:16.517Z,100898.28
2023-04-02T14:31:54.325Z,100902.78
2023-04-02T14:34:39.874Z,100904.63
2023-04-02T14:37:27.014Z,100904.69
2023-04-02T14:40:16.588Z,100903.81
2023-04-02T14:43:03.950Z,100901.97
2023-04-02T14:45:49.166Z,100910.78
2023-04-02T14:48:47.789Z,100904.56
2023-04-02T14:51:17.097Z,100905.44
2023-04-02T14:53:58.866Z,100905.47
2023-04-02T14:56:26.582Z,100908.94
2023-04-02T14:59:18.773Z,100915.97
2023-04-02T15:01:50.171Z,100910.69
2023-04-02T15:05:07.990Z,100911.69
2023-04-02T15:07:41.828Z,100922.44
2023-04-02T15:10:23.901Z,100919.69
2023-04-02T15:12:53.812Z,100925.00
2023-04-02T15:15:39.389Z,100917.03
2023-04-02T15:18:16.823Z,100925.00
2023-04-02T15:21:08.155Z,100917.00
2023-04-02T15:23:35.789Z,100916.13
2023-04-02T15:26:21.763Z,100923.19
2023-04-02T15:28:57.624Z,100923.19
2023-04-02T15:31:28.076Z,100921.38
2023-04-02T15:34:25.693Z,100932.78
2023-04-02T15:36:58.110Z,100937.13
2023-04-02T15:39:39.257Z,100942.38
2023-04-02T15:42:17.942Z,100937.94
2023-04-02T15:44:59.189Z,100940.53
2023-04-02T15:47:37.381Z,100951.09
2023-04-02T15:50:21.222Z,100945.94
2023-04-02T15:52:48.393Z,100945.03
2023-04-02T15:55:48.789Z,100950.31
2023-04-02T15:58:35.798Z,100957.34
2023-04-02T16:01:25.745Z,100966.19
2023-04-02T16:04:11.960Z,100962.66
2023-04-02T16:07:01.825Z,100967.09
2023-04-02T16:09:42.138Z,100969.72
2023-04-02T16:12:16.080Z,100967.03
2023-04-02T16:14:45.924Z,100963.44
2023-04-02T16:17:25.612Z,100965.16
2023-04-02T16:20:24.973Z,100967.75
2023-04-02T16:23:01.118Z,100983.69
2023-04-02T16:25:34.353Z,100991.66
2023-04-02T16:28:24.259Z,100981.16
2023-04-02T16:31:19.564Z,100991.81
2023-04-02T16:33:55.769Z,100993.53
2023-04-02T16:36:39.640Z,100993.50
2023-04-02T16:39:16.499Z,101001.41
2023-04-02T16:42:19.037Z,101007.59
2023-04-02T16:45:11.621Z,101000.53
2023-04-02T16:47:47.957Z,101009.34
2023-04-02T16:50:49.436Z,101009.38
2023-04-02T16:53:31.519Z,101012.09
2023-04-02T16:55:58.385Z,101011.22
2023-04-02T16:58:41.219Z,101016.47
2023-04-02T17:01:33.255Z,101020.09
2023-04-02T17:03:59.823Z,101027.13
2023-04-02T17:06:43.466Z,101028.88
2023-04-02T17:09:18.798Z,101036.81
2023-04-02T17:11:59.277Z,101032.44
2023-04-02T17:14:42.192Z,101036.00
2023-04-02T17:17:14.957Z,101036.03
2023-04-02T17:19:44.369Z,101034.34
2023-04-02T17:22:17.009Z,101035.22
2023-04-02T17:25:03.076Z,101037.88
2023-04-02T17:27:35.698Z,101044.91
2023-04-02T17:30:12.927Z,101043.22
2023-04-02T17:32:40.221Z,101050.28
2023-04-02T17:35:18.766Z,101055.59
2023-04-02T17:37:57.064Z,101068.00
2023-04-02T17:40:52.007Z,101070.75
2023-04-02T17:43:46.336Z,101074.34
2023-04-02T17:46:31.622Z,101072.59
2023-04-02T17:49:16.906Z,101090.31
2023-04-02T17:51:55.535Z,101087.66
2023-04-02T17:54:38.170Z,101093.03
2023-04-02T17:57:40.594Z,101104.56
2023-04-02T18:00:13.356Z,101102.81
2023-04-02T18:02:53.038Z,101107.28
2023-04-02T18:05:45.949Z,101103.81
2023-04-02T18:08:32.820Z,101102.13
2023-04-02T18:11:24.668Z,101112.75
2023-04-02T18:13:58.720Z,101118.09
2023-04-02T18:16:42.078Z,101123.41
2023-04-02T18:19:16.063Z,101133.16
2023-04-02T18:22:01.532Z,101134.09
2023-04-02T18:24:46.821Z,101142.03
2023-04-02T18:27:31.104Z,101144.72
2023-04-02T18:30:31.864Z,101143.88
2023-04-02T18:33:35.824Z,101151.84
2023-04-02T18:36:29.030Z,101150.13
2023-04-02T18:39:06.335Z,101153.69
2023-04-02T18:41:39.312Z,101150.16
2023-04-02T18:44:31.335Z,101147.53
2023-04-02T18:47:15.052Z,101158.06
2023-04-02T18:49:50.255Z,101167.81
2023-04-02T18:52:18.678Z,101174.84
2023-04-02T18:55:02.381Z,101170.47
2023-04-02T18:57:33.933Z,101181.03
2023-04-02T19:00:15.621Z,101176.63
2023-04-02T19:03:07.225Z,101180.16
2023-04-02T19:06:16.380Z,101184.59
2023-04-02T19:08:48.438Z,101191.66
2023-04-02T19:11:28.677Z,101195.19
2023-04-02T19:13:58.549Z,101191.66
2023-04-02T19:16:50.619Z,101197.81
2023-04-02T19:19:25.385Z,101195.19
2023-04-02T19:21:55.654Z,101203.13
2023-04-02T19:24:41.277Z,101207.53
2023-04-02T19:27:32.568Z,101217.22
2023-04-02T19:30:31.968Z,101217.22
2023-04-02T19:33:17.593Z,101226.03
2023-04-02T19:36:02.190Z,101227.84
2023-04-02T19:38:51.630Z,101224.31
2023-04-02T19:41:39.730Z,101229.59
2023-04-02T19:44:13.041Z,101230.44
2023-04-02T19:46:41.467Z,101236.63
2023-04-02T19:49:12.541Z,101235.72
2023-04-02T19:51:39.430Z,101234.84
2023-04-02T19:54:06.634Z,101239.28
2023-04-02T19:56:33.441Z,101243.69
2023-04-02T19:59:07.826Z,101242.78
2023-04-02T20:01:44.133Z,101245.44
2023-04-02T20:04:10.931Z,101248.94
2023-04-02T20:06:37.925Z,101257.78
2023-04-02T20:09:05.137Z,101258.66
2023-04-02T20:11:31.690Z,101255.09
2023-04-02T20:13:58.929Z,101264.81
2023-04-02T20:16:25.715Z,101270.09
2023-04-02T20:18:53.139Z,101271.84
2023-04-02T20:21:19.736Z,101267.44
2023-04-02T20:23:46.995Z,101270.97
2023-04-02T20:26:13.613Z,101275.34
2023-04-02T20:28:40.881Z,101275.38
